Air Navigation Services of Czech Republic
Airport: LKPD Updated:  21.11.2019 18:00:27  UTC
 METAR LKPD 21.11. 18:00 ...
METAR LKPD 211800Z 14010KT 9999 OVC020 10/06 Q1010 NOSIG RMK WHT WHT=
 TAF LKPD 21.11. 17:00 ...
TAF LKPD 211700Z 2118/2218 14006KT 9999 BKN020      BECMG 2118/2120 SCT025      BECMG 2205/2207 12008KT BKN025=